Time;durP1;ratioP1;P1;durP2;ratioP2;P2;SDS_P1;SDS_P2;PMS_P1;PMS_P2;Temp;Humidity;BMP_temperature;BMP_pressure;BME280_temperature;BME280_humidity;BME280_pressure;Samples;Min_cycle;Max_cycle;Signal;HPM_P1;HPM_P2
2022/07/16 00:02:21;;;;;;;0.85;0.82;;;15.90;99.90;;;;;;4919053;29;20051;-94
2022/07/16 00:04:55;;;;;;;1.08;1.02;;;15.70;99.90;;;;;;4918072;29;20052;-93
2022/07/16 00:07:37;;;;;;;1.23;0.73;;;15.90;99.90;;;;;;4902910;29;20047;-94
2022/07/16 00:10:06;;;;;;;0.95;0.95;;;15.90;99.90;;;;;;4888845;29;20130;-94
2022/07/16 00:12:32;;;;;;;1.50;1.23;;;15.90;99.90;;;;;;4902753;29;20115;-94
2022/07/16 00:15:03;;;;;;;2.50;1.08;;;15.90;99.90;;;;;;4902737;29;20482;-94
2022/07/16 00:17:29;;;;;;;0.85;0.82;;;15.90;99.90;;;;;;4905226;29;20043;-94
2022/07/16 00:20:02;;;;;;;0.45;0.45;;;15.90;99.90;;;;;;4918408;29;20119;-93
2022/07/16 00:22:28;;;;;;;0.90;0.75;;;15.80;99.90;;;;;;4890751;29;20039;-94
2022/07/16 00:25:01;;;;;;;1.88;1.67;;;15.90;99.90;;;;;;4908371;29;20692;-94
2022/07/16 00:27:31;;;;;;;2.95;0.95;;;15.10;99.90;;;;;;4910411;29;20111;-94
2022/07/16 00:29:59;;;;;;;1.30;1.20;;;15.20;99.90;;;;;;4902751;29;20076;-94
2022/07/16 00:32:27;;;;;;;3.95;1.50;;;15.90;99.90;;;;;;4917119;29;20062;-94
2022/07/16 00:34:56;;;;;;;2.72;1.00;;;15.80;99.90;;;;;;4918910;29;20055;-93
2022/07/16 00:37:29;;;;;;;1.45;0.98;;;15.90;99.90;;;;;;4900352;29;20471;-92
2022/07/16 00:39:57;;;;;;;2.05;1.00;;;15.90;99.90;;;;;;4888199;29;20083;-94
2022/07/16 00:42:30;;;;;;;1.92;1.10;;;15.80;99.90;;;;;;4899582;29;20078;-94
2022/07/16 00:45:11;;;;;;;1.20;1.08;;;15.50;99.90;;;;;;4901963;29;20134;-93
2022/07/16 00:47:37;;;;;;;1.13;1.02;;;15.90;99.90;;;;;;4904162;29;20062;-95
2022/07/16 00:50:03;;;;;;;1.38;0.90;;;15.90;99.90;;;;;;4902716;29;20479;-94
2022/07/16 00:52:35;;;;;;;1.50;1.35;;;15.80;99.90;;;;;;4903581;29;20553;-94
2022/07/16 00:55:02;;;;;;;1.02;0.93;;;15.90;99.90;;;;;;4906427;29;20043;-95
2022/07/16 00:57:28;;;;;;;1.20;1.10;;;15.50;99.90;;;;;;4901317;29;20415;-94
2022/07/16 01:00:01;;;;;;;1.38;1.20;;;15.80;99.90;;;;;;4906425;29;20055;-95
2022/07/16 01:02:31;;;;;;;0.75;0.75;;;15.80;99.90;;;;;;4959592;28;20182;-94
2022/07/16 01:04:57;;;;;;;1.70;1.13;;;15.90;99.90;;;;;;4945234;28;20108;-94
2022/07/16 01:07:27;;;;;;;1.67;1.58;;;15.80;99.90;;;;;;4935419;28;20505;-94
2022/07/16 01:09:54;;;;;;;2.50;1.00;;;15.10;99.90;;;;;;4927479;28;20137;-93
2022/07/16 01:12:20;;;;;;;1.48;0.93;;;15.80;99.90;;;;;;4941114;28;20046;-94
2022/07/16 01:14:48;;;;;;;1.23;1.00;;;15.80;99.90;;;;;;4932357;28;20047;-94
2022/07/16 01:17:14;;;;;;;1.15;1.13;;;15.50;99.90;;;;;;4948431;28;20129;-94
2022/07/16 01:19:40;;;;;;;1.27;1.00;;;15.30;99.90;;;;;;4932352;29;20134;-94
2022/07/16 01:22:16;;;;;;;2.28;1.20;;;15.70;99.90;;;;;;4934550;28;20070;-96
2022/07/16 01:24:42;;;;;;;1.70;1.40;;;15.70;99.90;;;;;;4928129;28;20047;-96
2022/07/16 01:27:20;;;;;;;;;;;;;;;;;;;;;
2022/07/16 01:29:52;;;;;;;2.65;1.30;;;15.70;99.90;;;;;;4932366;28;20114;-95
2022/07/16 01:32:20;;;;;;;1.40;1.30;;;15.70;99.90;;;;;;4930405;28;20109;-94
2022/07/16 01:34:46;;;;;;;2.47;1.20;;;15.60;99.90;;;;;;4935523;28;20071;-96
2022/07/16 01:37:14;;;;;;;1.93;1.40;;;15.60;99.90;;;;;;4938692;28;20077;-95
2022/07/16 01:39:43;;;;;;;2.15;1.52;;;15.50;99.90;;;;;;4937822;28;20281;-95
2022/07/16 01:42:10;;;;;;;0.95;0.95;;;15.50;99.90;;;;;;4932868;28;20039;-94
2022/07/16 01:44:47;;;;;;;1.50;1.33;;;15.50;99.90;;;;;;4929375;28;20039;-94
2022/07/16 01:47:16;;;;;;;1.33;1.23;;;15.50;99.90;;;;;;4935297;28;20047;-94
2022/07/16 01:49:42;;;;;;;1.63;1.52;;;15.50;99.90;;;;;;4937751;28;20042;-95
2022/07/16 01:52:14;;;;;;;1.58;1.48;;;14.80;99.90;;;;;;4937822;28;20081;-95
2022/07/16 01:54:52;;;;;;;1.73;1.23;;;15.50;99.90;;;;;;4933137;28;20541;-93
2022/07/16 01:57:23;;;;;;;3.28;1.38;;;15.50;99.90;;;;;;4940677;28;20043;-96
2022/07/16 01:59:53;;;;;;;3.47;1.42;;;15.50;99.90;;;;;;4929081;29;20044;-95
2022/07/16 02:02:19;;;;;;;1.83;1.30;;;15.50;99.90;;;;;;4934813;28;20050;-94
2022/07/16 02:04:47;;;;;;;1.65;1.52;;;15.50;99.90;;;;;;4931907;28;20051;-93
2022/07/16 02:07:30;;;;;;;1.55;1.15;;;15.50;99.90;;;;;;4936984;28;20051;-94
2022/07/16 02:09:56;;;;;;;2.40;1.42;;;15.60;99.90;;;;;;4931352;28;20039;-93
2022/07/16 02:12:24;;;;;;;2.90;1.27;;;15.50;99.90;;;;;;4934879;28;20062;-94
2022/07/16 02:14:52;;;;;;;1.45;1.35;;;15.50;99.90;;;;;;4942307;28;20051;-94
2022/07/16 02:17:25;;;;;;;1.77;1.00;;;15.60;99.90;;;;;;4930802;28;20075;-93
2022/07/16 02:19:53;;;;;;;1.17;1.05;;;15.50;99.90;;;;;;4934358;28;20046;-94
2022/07/16 02:22:19;;;;;;;1.30;1.15;;;15.50;99.90;;;;;;4951287;28;20039;-94
2022/07/16 02:24:47;;;;;;;1.30;1.20;;;15.60;99.90;;;;;;4927734;28;20047;-93
2022/07/16 02:27:13;;;;;;;1.40;1.10;;;15.50;99.90;;;;;;4931348;28;20055;-95
2022/07/16 02:29:46;;;;;;;1.95;0.77;;;15.50;99.90;;;;;;4939657;28;20055;-94
2022/07/16 02:32:15;;;;;;;2.53;1.92;;;15.50;99.90;;;;;;4935258;28;20046;-95
2022/07/16 02:34:41;;;;;;;2.20;0.95;;;15.50;99.90;;;;;;4937203;28;20051;-95
2022/07/16 02:37:14;;;;;;;1.25;1.13;;;15.50;99.90;;;;;;4950036;29;20050;-96
2022/07/16 02:39:45;;;;;;;0.93;0.85;;;15.40;99.90;;;;;;4915440;29;20039;-94
2022/07/16 02:42:13;;;;;;;1.58;0.90;;;15.40;99.90;;;;;;4954669;28;20103;-94
2022/07/16 02:44:42;;;;;;;1.45;1.35;;;14.70;99.90;;;;;;4931869;28;20082;-95
2022/07/16 02:47:13;;;;;;;3.67;1.48;;;15.40;99.90;;;;;;4929880;28;20394;-94
2022/07/16 02:49:47;;;;;;;2.00;1.42;;;15.40;99.90;;;;;;4968895;28;20098;-94
2022/07/16 02:52:18;;;;;;;1.92;1.55;;;15.50;99.90;;;;;;4919126;28;20130;-95
2022/07/16 02:54:53;;;;;;;1.95;1.20;;;15.50;99.90;;;;;;4931383;28;20053;-95
2022/07/16 02:57:29;;;;;;;3.35;2.30;;;14.60;99.90;;;;;;4928612;29;20070;-95
2022/07/16 03:00:00;;;;;;;1.63;1.33;;;15.50;99.90;;;;;;4912081;29;20130;-94
2022/07/16 03:02:29;;;;;;;1.67;1.30;;;15.40;99.90;;;;;;4951870;28;20306;-95
2022/07/16 03:05:02;;;;;;;1.85;1.10;;;14.80;99.90;;;;;;4925409;28;20134;-95
2022/07/16 03:07:33;;;;;;;3.08;2.15;;;15.40;99.90;;;;;;4934701;29;20130;-94
2022/07/16 03:09:59;;;;;;;3.63;1.80;;;15.40;99.90;;;;;;4922884;28;20039;-95
2022/07/16 03:12:28;;;;;;;1.45;1.15;;;15.40;99.90;;;;;;4938477;29;20044;-95
2022/07/16 03:14:54;;;;;;;2.70;1.55;;;15.40;99.90;;;;;;4932253;28;20046;-95
2022/07/16 03:17:24;;;;;;;3.93;1.20;;;15.40;99.90;;;;;;4929413;28;20109;-96
2022/07/16 03:19:50;;;;;;;1.52;1.23;;;15.30;99.90;;;;;;4927228;28;20339;-94
2022/07/16 03:22:21;;;;;;;3.22;1.45;;;15.30;99.90;;;;;;4932710;28;20097;-95
2022/07/16 03:24:50;;;;;;;1.48;1.38;;;15.30;99.90;;;;;;4927929;28;20130;-95
2022/07/16 03:27:23;;;;;;;2.50;1.55;;;15.30;99.90;;;;;;4929711;28;20397;-94
2022/07/16 03:29:51;;;;;;;2.92;1.77;;;15.20;99.90;;;;;;4932265;28;20481;-94
2022/07/16 03:32:22;;;;;;;1.83;1.45;;;15.30;99.90;;;;;;4914583;28;20449;-94
2022/07/16 03:34:55;;;;;;;1.08;0.90;;;15.20;99.90;;;;;;4915168;28;20461;-94
2022/07/16 03:37:21;;;;;;;1.70;1.42;;;15.20;99.90;;;;;;4911037;28;20138;-95
2022/07/16 03:39:47;;;;;;;1.65;1.20;;;15.20;99.90;;;;;;4939749;28;20134;-94
2022/07/16 03:42:13;;;;;;;2.42;1.20;;;15.20;99.90;;;;;;4938989;28;20049;-94
2022/07/16 03:44:52;;;;;;;;;;;;;;;;;;;;;
2022/07/16 03:47:18;;;;;;;1.25;1.15;;;15.10;99.90;;;;;;4953009;28;20051;-95
2022/07/16 03:49:48;;;;;;;2.15;1.80;;;15.10;99.90;;;;;;4936846;28;20054;-94
2022/07/16 03:52:17;;;;;;;1.48;1.15;;;14.60;99.90;;;;;;4953570;28;20437;-94
2022/07/16 03:54:55;;;;;;;;;;;;;;;;;;;;;
2022/07/16 03:57:28;;;;;;;1.90;1.13;;;15.00;99.90;;;;;;4965241;28;20050;-93
2022/07/16 03:59:56;;;;;;;1.05;0.95;;;15.00;99.90;;;;;;4912045;28;20043;-94
2022/07/16 04:02:25;;;;;;;3.33;1.00;;;14.90;99.90;;;;;;4945641;28;20103;-94
2022/07/16 04:04:58;;;;;;;1.85;1.35;;;14.80;99.90;;;;;;4904730;29;20501;-94
2022/07/16 04:07:26;;;;;;;1.60;1.40;;;14.30;99.90;;;;;;4903346;29;20170;-95
2022/07/16 04:09:55;;;;;;;2.00;1.25;;;14.80;99.90;;;;;;4915411;29;20074;-95
2022/07/16 04:12:24;;;;;;;2.20;1.30;;;14.80;99.90;;;;;;4912466;29;20054;-95
2022/07/16 04:14:51;;;;;;;1.35;1.10;;;14.80;99.90;;;;;;4902592;29;20058;-95
2022/07/16 04:17:17;;;;;;;1.80;1.27;;;14.70;99.90;;;;;;4928872;29;20055;-95
2022/07/16 04:19:46;;;;;;;3.65;1.33;;;14.80;99.90;;;;;;4902282;29;20075;-95
2022/07/16 04:22:12;;;;;;;3.40;1.75;;;14.80;99.90;;;;;;4905519;29;20052;-94
2022/07/16 04:24:43;;;;;;;3.58;1.00;;;14.70;99.90;;;;;;4908269;29;20102;-94
2022/07/16 04:27:11;;;;;;;3.08;1.00;;;14.70;99.90;;;;;;4929430;29;20133;-94
2022/07/16 04:29:44;;;;;;;3.08;1.17;;;14.60;99.90;;;;;;4905214;29;20046;-94
2022/07/16 04:32:20;;;;;;;;;;;;;;;;;;;;;
2022/07/16 04:34:49;;;;;;;1.55;1.02;;;13.80;99.90;;;;;;4931525;29;20051;-94
2022/07/16 04:37:15;;;;;;;1.33;1.13;;;14.60;99.90;;;;;;4902665;29;20061;-93
2022/07/16 04:39:43;;;;;;;1.27;1.17;;;14.60;99.90;;;;;;4910753;29;20046;-94
2022/07/16 04:42:14;;;;;;;2.00;1.10;;;14.60;99.90;;;;;;4910745;29;20140;-94
2022/07/16 04:44:58;;;;;;;5.05;1.08;;;14.10;99.90;;;;;;4919500;29;20040;-93
2022/07/16 04:47:42;;;;;;;2.03;1.10;;;14.60;99.90;;;;;;4900930;29;20048;-93
2022/07/16 04:50:09;;;;;;;3.55;1.88;;;13.70;99.90;;;;;;4905192;29;20055;-94
2022/07/16 04:52:53;;;;;;;1.63;1.52;;;14.60;99.90;;;;;;4923969;29;20070;-93
2022/07/16 04:55:21;;;;;;;2.03;1.65;;;14.70;99.90;;;;;;4912233;29;20097;-94
2022/07/16 04:58:15;;;;;;;1.88;1.75;;;14.60;99.90;;;;;;4911914;29;20044;-96
2022/07/16 05:00:44;;;;;;;2.05;1.65;;;14.70;99.90;;;;;;4909132;29;20055;-93
2022/07/16 05:03:10;;;;;;;1.20;1.10;;;14.70;99.90;;;;;;4943612;28;20522;-94
2022/07/16 05:05:42;;;;;;;1.40;1.23;;;14.70;99.90;;;;;;4930522;28;20081;-94
2022/07/16 05:08:15;;;;;;;2.92;1.52;;;14.80;99.90;;;;;;4920653;29;20051;-94
2022/07/16 05:10:44;;;;;;;2.55;1.45;;;14.10;99.90;;;;;;4906068;28;20493;-93
2022/07/16 05:13:20;;;;;;;1.52;1.25;;;14.80;99.90;;;;;;4932032;28;20065;-93
2022/07/16 05:15:53;;;;;;;1.55;1.20;;;14.80;99.90;;;;;;4904174;29;20562;-93
2022/07/16 05:18:19;;;;;;;1.85;1.67;;;14.70;99.90;;;;;;4924401;28;20053;-92
2022/07/16 05:20:45;;;;;;;2.58;1.20;;;14.70;99.90;;;;;;4933532;29;20051;-93
2022/07/16 05:23:11;;;;;;;2.35;1.40;;;14.60;99.90;;;;;;4902626;28;20113;-94
2022/07/16 05:25:36;;;;;;;0.93;0.90;;;14.60;99.90;;;;;;4935474;28;20043;-93
2022/07/16 05:28:03;;;;;;;1.83;1.23;;;14.60;99.90;;;;;;4952795;28;20138;-94
2022/07/16 05:30:37;;;;;;;2.10;1.30;;;14.60;99.90;;;;;;4931578;28;20378;-93
2022/07/16 05:33:03;;;;;;;3.55;1.35;;;14.70;99.90;;;;;;4905431;29;20098;-92
2022/07/16 05:35:44;;;;;;;2.30;1.58;;;14.60;99.90;;;;;;4946970;28;20043;-93
2022/07/16 05:38:25;;;;;;;2.45;1.35;;;15.00;99.90;;;;;;4940396;28;20553;-94
2022/07/16 05:41:11;;;;;;;3.42;1.60;;;14.20;99.90;;;;;;4928868;28;20053;-94
2022/07/16 05:43:49;;;;;;;;;;;;;;;;;;;;;
2022/07/16 05:46:20;;;;;;;3.90;1.17;;;14.90;99.90;;;;;;4928974;28;20047;-91
2022/07/16 05:48:46;;;;;;;1.55;1.00;;;15.10;99.90;;;;;;4932469;28;20043;-92
2022/07/16 05:51:16;;;;;;;4.78;2.42;;;15.40;99.90;;;;;;4949211;28;20043;-93
2022/07/16 05:53:42;;;;;;;2.42;0.98;;;15.50;99.90;;;;;;4929201;28;20104;-87
2022/07/16 05:56:11;;;;;;;2.97;0.95;;;15.70;99.90;;;;;;4930544;28;20062;-87
2022/07/16 05:58:39;;;;;;;1.95;1.02;;;15.40;99.90;;;;;;4932852;28;20138;-88
2022/07/16 06:01:09;;;;;;;2.22;1.50;;;16.00;99.90;;;;;;4940728;28;20065;-88
2022/07/16 06:03:38;;;;;;;1.90;1.00;;;16.20;99.90;;;;;;4937119;29;20043;-89
2022/07/16 06:06:07;;;;;;;2.47;0.93;;;16.30;99.90;;;;;;4910843;28;20079;-91
2022/07/16 06:08:33;;;;;;;2.60;1.60;;;16.60;99.90;;;;;;4950166;28;20081;-90
2022/07/16 06:10:59;;;;;;;1.08;0.90;;;16.70;99.90;;;;;;4928984;28;20051;-91
2022/07/16 06:13:27;;;;;;;2.45;0.80;;;16.80;99.90;;;;;;4939424;28;20111;-92
2022/07/16 06:15:55;;;;;;;1.50;1.25;;;16.90;99.90;;;;;;4933268;28;20061;-92
2022/07/16 06:18:21;;;;;;;1.63;1.33;;;16.90;99.90;;;;;;4952690;28;20051;-91
2022/07/16 06:20:49;;;;;;;4.77;1.20;;;16.90;99.90;;;;;;4930116;28;20560;-90
2022/07/16 06:23:17;;;;;;;1.92;1.25;;;16.90;99.90;;;;;;4954176;28;20057;-88
2022/07/16 06:25:42;;;;;;;1.00;0.90;;;16.90;99.90;;;;;;4952051;28;20046;-89
2022/07/16 06:28:08;;;;;;;1.70;1.05;;;17.00;99.90;;;;;;4930021;28;20046;-89
2022/07/16 06:30:34;;;;;;;1.20;1.17;;;16.60;99.90;;;;;;4928819;29;20061;-93
2022/07/16 06:33:14;;;;;;;3.17;1.42;;;17.10;99.90;;;;;;4917220;28;20380;-94
2022/07/16 06:35:42;;;;;;;0.85;0.68;;;17.20;99.90;;;;;;4922920;28;20116;-92
2022/07/16 06:38:08;;;;;;;1.15;0.75;;;16.80;99.90;;;;;;4957706;28;20507;-90
2022/07/16 06:40:34;;;;;;;3.17;1.20;;;17.20;99.90;;;;;;4926318;28;20047;-86
2022/07/16 06:43:04;;;;;;;1.63;0.73;;;17.20;99.90;;;;;;4927087;28;20145;-96
2022/07/16 06:45:43;;;;;;;0.90;0.77;;;17.30;99.90;;;;;;4935875;28;20058;-93
2022/07/16 06:48:14;;;;;;;3.05;1.38;;;17.10;99.90;;;;;;4929294;28;20084;-93
2022/07/16 06:50:40;;;;;;;1.25;0.70;;;17.90;99.90;;;;;;4934127;28;20045;-95
2022/07/16 06:53:08;;;;;;;4.22;0.77;;;17.40;99.90;;;;;;4945903;28;20410;-93
2022/07/16 06:55:34;;;;;;;1.73;1.60;;;17.50;99.90;;;;;;4920708;29;20512;-92
2022/07/16 06:58:00;;;;;;;1.42;0.80;;;17.50;99.90;;;;;;4941451;28;20050;-94
2022/07/16 07:00:26;;;;;;;5.07;1.60;;;17.50;99.90;;;;;;4943530;28;20490;-92
2022/07/16 07:02:52;;;;;;;0.98;0.75;;;17.60;99.90;;;;;;4957426;28;20047;-92
2022/07/16 07:05:18;;;;;;;2.83;0.90;;;17.60;99.90;;;;;;4921727;28;20078;-93
2022/07/16 07:07:46;;;;;;;3.17;1.88;;;17.40;99.90;;;;;;4914689;29;20051;-90
2022/07/16 07:10:19;;;;;;;1.13;0.80;;;17.30;99.90;;;;;;4928049;28;20054;-95
2022/07/16 07:12:47;;;;;;;4.45;1.10;;;17.30;99.90;;;;;;4941420;28;20078;-96
2022/07/16 07:15:13;;;;;;;1.73;0.50;;;17.10;99.90;;;;;;4956819;28;20122;-95
2022/07/16 07:17:39;;;;;;;1.08;0.90;;;17.20;99.90;;;;;;4961104;28;20133;-91
2022/07/16 07:20:13;;;;;;;2.38;0.90;;;17.30;99.90;;;;;;4919854;28;20125;-93
2022/07/16 07:22:39;;;;;;;3.78;0.50;;;17.40;99.90;;;;;;4931613;28;20508;-90
2022/07/16 07:25:12;;;;;;;0.47;0.47;;;17.40;99.90;;;;;;4946377;28;20078;-96
2022/07/16 07:27:38;;;;;;;2.35;1.00;;;17.50;99.90;;;;;;4922720;28;20047;-95
2022/07/16 07:30:05;;;;;;;0.73;0.73;;;17.40;99.90;;;;;;4932981;28;20516;-96
2022/07/16 07:32:30;;;;;;;1.88;1.02;;;17.20;99.90;;;;;;4922778;28;20047;-95
2022/07/16 07:34:59;;;;;;;1.50;0.73;;;17.10;99.90;;;;;;4932189;28;20051;-96
2022/07/16 07:37:25;;;;;;;1.67;1.20;;;16.90;99.90;;;;;;4930844;28;20053;-96
2022/07/16 07:39:58;;;;;;;4.65;1.13;;;16.80;99.90;;;;;;4929910;28;20043;-96
2022/07/16 07:42:24;;;;;;;0.80;0.60;;;16.90;99.90;;;;;;4911169;29;20096;-95
2022/07/16 07:44:49;;;;;;;1.87;0.80;;;17.00;99.90;;;;;;4932144;28;20429;-94
2022/07/16 07:47:23;;;;;;;0.50;0.50;;;17.20;99.90;;;;;;4920167;28;20051;-95
2022/07/16 07:49:54;;;;;;;0.50;0.45;;;17.30;99.90;;;;;;4937317;29;20061;-96
2022/07/16 07:52:23;;;;;;;7.32;0.90;;;17.20;99.90;;;;;;4941804;28;20071;-95
2022/07/16 07:54:54;;;;;;;2.45;1.00;;;17.40;99.90;;;;;;4930097;28;20047;-96
2022/07/16 07:57:19;;;;;;;5.80;0.88;;;17.50;99.90;;;;;;4920858;28;20043;-94
2022/07/16 07:59:45;;;;;;;2.47;1.17;;;17.50;99.90;;;;;;4935700;28;20109;-96
2022/07/16 08:02:16;;;;;;;1.20;0.90;;;17.40;99.90;;;;;;4936167;28;20050;-96
2022/07/16 08:04:44;;;;;;;0.80;0.65;;;17.40;99.90;;;;;;4942377;28;20573;-96
2022/07/16 08:07:15;;;;;;;2.20;1.15;;;17.50;99.90;;;;;;4939047;28;20043;-93
2022/07/16 08:09:52;;;;;;;2.58;1.00;;;17.70;99.90;;;;;;4936013;28;20490;-89
2022/07/16 08:12:18;;;;;;;0.55;0.45;;;17.90;99.90;;;;;;4929325;28;20131;-93
2022/07/16 08:14:51;;;;;;;2.17;1.25;;;17.90;99.90;;;;;;4939524;28;20090;-92
2022/07/16 08:17:17;;;;;;;1.60;0.70;;;17.80;99.90;;;;;;4928980;29;20043;-92
2022/07/16 08:19:45;;;;;;;3.45;0.55;;;17.70;99.90;;;;;;4948779;29;20046;-92
2022/07/16 08:22:16;;;;;;;2.88;2.33;;;17.60;99.90;;;;;;4925304;28;20039;-91
2022/07/16 08:27:26;;;;;;;1.05;0.95;;;17.30;99.90;;;;;;4969908;28;20043;-87
2022/07/16 08:29:54;;;;;;;1.30;1.07;;;17.30;99.90;;;;;;4937768;28;20106;-87
2022/07/16 08:32:22;;;;;;;0.90;0.60;;;17.40;99.90;;;;;;4906714;28;20303;-89
2022/07/16 08:34:51;;;;;;;1.25;0.80;;;17.50;99.90;;;;;;4951639;28;20038;-87
2022/07/16 08:37:35;;;;;;;1.88;0.60;;;16.90;99.90;;;;;;4937898;28;20050;-87
2022/07/16 08:40:05;;;;;;;0.60;0.57;;;17.70;99.90;;;;;;4938274;28;20057;-88
2022/07/16 08:42:38;;;;;;;3.33;1.02;;;17.80;99.90;;;;;;4923157;28;20519;-84
2022/07/16 08:45:05;;;;;;;0.77;0.60;;;17.70;99.90;;;;;;4936919;28;20444;-87
2022/07/16 08:47:32;;;;;;;1.92;1.13;;;17.70;99.90;;;;;;4927883;28;20425;-85
2022/07/16 08:50:03;;;;;;;2.15;1.42;;;17.80;99.90;;;;;;4935570;28;20043;-89
2022/07/16 08:52:29;;;;;;;4.10;1.33;;;17.80;99.90;;;;;;4928074;28;20043;-89
2022/07/16 08:54:56;;;;;;;1.23;0.63;;;17.80;99.90;;;;;;4939114;29;20513;-91
2022/07/16 08:57:23;;;;;;;0.95;0.60;;;17.80;99.90;;;;;;4905228;29;20047;-89
2022/07/16 08:59:50;;;;;;;1.23;0.65;;;17.90;99.90;;;;;;4937263;29;20485;-90
2022/07/16 09:02:16;;;;;;;3.08;0.70;;;18.10;99.90;;;;;;4894258;29;20119;-90
2022/07/16 09:04:42;;;;;;;1.38;1.17;;;18.20;99.90;;;;;;4917654;29;20280;-90
2022/07/16 09:07:18;;;;;;;2.95;0.77;;;18.30;99.90;;;;;;4918319;29;20133;-91
2022/07/16 09:09:45;;;;;;;1.33;1.03;;;18.40;99.90;;;;;;4917692;29;20075;-91
2022/07/16 09:12:33;;;;;;;2.05;0.70;;;19.20;99.90;;;;;;4902513;29;20051;-91
2022/07/16 09:14:58;;;;;;;3.75;0.65;;;18.70;99.90;;;;;;4880258;29;20064;-91
2022/07/16 09:17:24;;;;;;;2.15;0.50;;;18.00;99.90;;;;;;4887020;29;20048;-89
2022/07/16 09:19:50;;;;;;;1.63;0.90;;;18.80;99.90;;;;;;4902529;29;20119;-91
2022/07/16 09:22:18;;;;;;;2.22;1.13;;;18.80;99.90;;;;;;4887138;29;20075;-91
2022/07/16 09:24:44;;;;;;;1.42;1.08;;;18.70;99.90;;;;;;4871173;29;20052;-91
2022/07/16 09:27:12;;;;;;;1.60;0.55;;;18.80;99.90;;;;;;4887145;29;20044;-90
2022/07/16 09:29:52;;;;;;;2.20;1.40;;;19.00;99.90;;;;;;4904461;29;20051;-90
2022/07/16 09:32:39;;;;;;;1.08;0.85;;;19.20;99.90;;;;;;4905740;29;20383;-90
2022/07/16 09:35:13;;;;;;;1.23;1.00;;;19.20;99.90;;;;;;4906134;29;20051;-89
2022/07/16 09:37:59;;;;;;;1.00;0.77;;;19.20;99.90;;;;;;4920975;29;20142;-89
2022/07/16 09:40:38;;;;;;;3.67;1.65;;;19.00;99.90;;;;;;4889875;29;20047;-91
2022/07/16 09:43:18;;;;;;;1.00;0.90;;;18.80;99.90;;;;;;4905431;29;20052;-91
2022/07/16 09:45:49;;;;;;;2.25;1.35;;;18.60;99.90;;;;;;4920741;29;20059;-91
2022/07/16 09:48:21;;;;;;;1.17;0.68;;;18.60;99.90;;;;;;4905565;29;20130;-91
2022/07/16 09:50:47;;;;;;;1.27;0.75;;;18.50;99.90;;;;;;4904992;29;20043;-91
2022/07/16 09:53:18;;;;;;;1.00;0.90;;;18.60;99.90;;;;;;4905348;29;20055;-91
2022/07/16 09:56:14;;;;;;;2.38;1.40;;;18.60;99.90;;;;;;4889967;29;20055;-90
2022/07/16 09:58:43;;;;;;;3.88;1.10;;;18.70;99.90;;;;;;4900993;29;20150;-91
2022/07/16 10:01:09;;;;;;;1.70;1.00;;;18.70;99.90;;;;;;4892703;29;20150;-91
2022/07/16 10:03:35;;;;;;;1.52;0.75;;;18.70;99.90;;;;;;4923366;29;20079;-89
2022/07/16 10:06:01;;;;;;;0.40;0.40;;;18.60;99.90;;;;;;4908536;29;20122;-90
2022/07/16 10:08:27;;;;;;;1.05;0.75;;;18.60;99.90;;;;;;4923216;29;20485;-90
2022/07/16 10:10:53;;;;;;;1.77;1.08;;;18.70;99.90;;;;;;4939280;29;20051;-89
2022/07/16 10:13:24;;;;;;;1.10;0.80;;;18.80;99.90;;;;;;4908326;29;20047;-90
2022/07/16 10:15:53;;;;;;;1.58;0.80;;;19.00;99.90;;;;;;4923201;29;20047;-90
2022/07/16 10:18:44;;;;;;;2.30;0.80;;;19.20;99.90;;;;;;4923891;29;20043;-90
2022/07/16 10:21:14;;;;;;;1.17;0.50;;;19.40;99.90;;;;;;4923797;29;20090;-91
2022/07/16 10:24:10;;;;;;;1.98;0.90;;;19.50;99.90;;;;;;4954936;29;20078;-90
2022/07/16 10:26:37;;;;;;;2.75;0.65;;;19.70;99.90;;;;;;4952599;28;20062;-89
2022/07/16 10:29:03;;;;;;;1.17;0.80;;;19.60;99.90;;;;;;4926926;28;20043;-91
2022/07/16 10:34:40;;;;;;;4.53;0.80;;;19.50;99.90;;;;;;4974781;28;20059;-91
2022/07/16 10:37:12;;;;;;;0.90;0.60;;;19.50;99.90;;;;;;4928380;29;20053;-91
2022/07/16 10:39:59;;;;;;;3.33;0.80;;;19.50;99.90;;;;;;4954766;29;20150;-89
2022/07/16 10:42:24;;;;;;;1.90;0.97;;;19.50;97.70;;;;;;4955099;29;20126;-90
2022/07/16 10:44:50;;;;;;;1.23;1.08;;;19.50;99.90;;;;;;4907179;29;20187;-91
2022/07/16 10:47:17;;;;;;;1.70;1.08;;;19.50;99.60;;;;;;4907665;29;20039;-89
2022/07/16 10:49:44;;;;;;;1.05;0.70;;;19.40;98.60;;;;;;4938649;29;20058;-91
2022/07/16 10:52:11;;;;;;;;;;;19.50;99.40;;;;;;4907835;29;20047;-90
2022/07/16 10:54:40;;;;;;;2.30;0.77;;;19.60;97.20;;;;;;4938671;29;19922;-89
2022/07/16 10:57:11;;;;;;;1.00;0.80;;;19.70;99.20;;;;;;4954849;29;20486;-91
2022/07/16 10:59:42;;;;;;;1.20;0.68;;;19.80;99.10;;;;;;4923234;29;20059;-89
2022/07/16 11:02:10;;;;;;;0.80;0.80;;;19.90;99.00;;;;;;4928328;29;20402;-90
2022/07/16 11:04:38;;;;;;;3.53;0.93;;;20.00;99.00;;;;;;4887262;29;20066;-90
2022/07/16 11:07:08;;;;;;;2.47;0.75;;;20.00;98.10;;;;;;4919475;29;20108;-90
2022/07/16 11:09:42;;;;;;;0.73;0.60;;;19.90;97.00;;;;;;4904254;29;20051;-90
2022/07/16 11:12:18;;;;;;;1.08;0.80;;;19.10;97.50;;;;;;4903828;29;20116;-91
2022/07/16 11:14:46;;;;;;;2.83;1.00;;;19.90;97.40;;;;;;4903304;29;20052;-90
2022/07/16 11:17:13;;;;;;;3.47;0.80;;;20.00;97.50;;;;;;4903899;29;20506;-90
2022/07/16 11:19:43;;;;;;;1.88;1.15;;;20.10;96.90;;;;;;4903873;29;20052;-90
2022/07/16 11:22:09;;;;;;;3.38;1.10;;;20.20;96.60;;;;;;4903707;29;20550;-91
2022/07/16 11:24:35;;;;;;;;;;;20.20;96.30;;;;;;4904174;29;20056;-90
2022/07/16 11:27:02;;;;;;;2.90;0.80;;;20.10;95.00;;;;;;4903264;29;20547;-91
2022/07/16 11:29:29;;;;;;;0.88;0.80;;;20.00;96.60;;;;;;4900846;29;20506;-91
2022/07/16 11:31:58;;;;;;;4.03;0.80;;;19.90;96.50;;;;;;4901369;29;20084;-91
2022/07/16 11:34:24;;;;;;;1.90;1.35;;;19.90;95.80;;;;;;4900117;29;20051;-92
2022/07/16 11:36:53;;;;;;;;;;;20.00;95.80;;;;;;4884577;29;20048;-91
2022/07/16 11:39:23;;;;;;;1.35;1.15;;;19.90;94.40;;;;;;4900234;29;20293;-91
2022/07/16 11:41:54;;;;;;;2.67;1.20;;;19.90;96.10;;;;;;4899819;29;20063;-91
2022/07/16 11:44:31;;;;;;;1.58;0.68;;;19.90;95.60;;;;;;4885091;29;20562;-92
2022/07/16 11:47:06;;;;;;;0.70;0.70;;;19.90;96.30;;;;;;4899580;29;20052;-92
2022/07/16 11:49:35;;;;;;;2.63;0.60;;;20.00;96.30;;;;;;4884729;29;20098;-91
2022/07/16 11:52:06;;;;;;;2.72;1.05;;;20.10;96.40;;;;;;4899456;29;20055;-91
2022/07/16 11:54:37;;;;;;;0.85;0.75;;;20.10;96.20;;;;;;4884539;29;20059;-91
2022/07/16 11:57:03;;;;;;;2.38;0.60;;;20.20;96.40;;;;;;4899313;29;20055;-91
2022/07/16 11:59:31;;;;;;;;;;;20.20;96.30;;;;;;4901496;29;20078;-91
2022/07/16 12:01:59;;;;;;;0.88;0.60;;;20.30;96.10;;;;;;4898789;29;20010;-91
2022/07/16 12:04:56;;;;;;;0.95;0.90;;;20.20;96.40;;;;;;4884434;29;20091;-91
2022/07/16 12:07:25;;;;;;;1.55;0.88;;;20.20;95.80;;;;;;4914997;29;20056;-92
2022/07/16 12:09:55;;;;;;;1.95;1.00;;;20.10;96.00;;;;;;4883717;29;20485;-92
2022/07/16 12:12:38;;;;;;;1.30;0.85;;;20.20;96.20;;;;;;4915650;29;20052;-91
2022/07/16 12:15:04;;;;;;;4.85;0.88;;;20.20;95.40;;;;;;4883781;29;20495;-92
2022/07/16 12:17:36;;;;;;;1.75;0.88;;;20.20;95.50;;;;;;4884221;29;20052;-91
2022/07/16 12:20:25;;;;;;;2.85;0.52;;;20.20;95.70;;;;;;4899314;29;20127;-91
2022/07/16 12:23:00;;;;;;;2.45;1.00;;;20.20;95.50;;;;;;4914807;29;20074;-90
2022/07/16 12:25:30;;;;;;;2.35;0.80;;;20.20;95.50;;;;;;4884120;29;20059;-91
2022/07/16 12:27:56;;;;;;;1.27;0.45;;;20.30;95.60;;;;;;4897297;29;20047;-92
2022/07/16 12:30:42;;;;;;;2.53;0.88;;;20.40;95.20;;;;;;4934532;29;20138;-91
2022/07/16 12:33:29;;;;;;;0.95;0.95;;;20.60;94.10;;;;;;4933732;29;20047;-91
2022/07/16 12:35:57;;;;;;;2.22;1.85;;;20.60;94.40;;;;;;4902208;29;20096;-91
2022/07/16 12:38:41;;;;;;;1.52;0.63;;;20.50;94.90;;;;;;4918513;29;20090;-91
2022/07/16 12:41:13;;;;;;;1.63;0.88;;;20.50;94.50;;;;;;4933893;29;20052;-90
2022/07/16 12:43:41;;;;;;;1.25;0.80;;;20.40;94.10;;;;;;4935108;29;20188;-91
2022/07/16 12:46:08;;;;;;;1.77;0.77;;;20.40;94.60;;;;;;4918963;29;20055;-92
2022/07/16 12:48:50;;;;;;;1.85;0.82;;;20.50;94.80;;;;;;4904523;29;20051;-92
2022/07/16 12:51:22;;;;;;;0.80;0.77;;;20.70;94.80;;;;;;4921655;29;20059;-91
2022/07/16 12:53:48;;;;;;;1.38;0.65;;;20.80;94.60;;;;;;4920701;29;20442;-89
2022/07/16 12:59:00;;;;;;;3.70;1.27;;;20.70;94.10;;;;;;4937484;29;20048;-91
2022/07/16 13:01:27;;;;;;;2.38;0.85;;;20.80;94.10;;;;;;4888543;29;20407;-92
2022/07/16 13:03:55;;;;;;;2.40;0.80;;;20.80;94.50;;;;;;4938925;29;20097;-91
2022/07/16 13:06:21;;;;;;;1.20;1.10;;;20.90;94.30;;;;;;4940893;29;20047;-90
2022/07/16 13:08:47;;;;;;;5.43;1.15;;;21.00;93.70;;;;;;4925140;29;20397;-91
2022/07/16 13:11:14;;;;;;;1.33;0.77;;;21.10;94.00;;;;;;4924523;29;20109;-91
2022/07/16 13:13:40;;;;;;;1.73;1.17;;;21.30;94.40;;;;;;4925139;29;20055;-92
2022/07/16 13:16:10;;;;;;;2.63;0.90;;;21.40;94.10;;;;;;4924503;29;20051;-92
2022/07/16 13:18:36;;;;;;;3.38;0.93;;;21.40;93.90;;;;;;4908695;29;20052;-91